sensor_id;sensor_type;location;lat;lon;timestamp;pressure;altitude;pressure_sealevel;temperature;humidity
52032;BME280;38044;45.148;39.604;2023-01-31T00:01:21;100681.84;;;1.46;75.18
52032;BME280;38044;45.148;39.604;2023-01-31T00:03:52;100659.91;;;1.39;75.29
52032;BME280;38044;45.148;39.604;2023-01-31T00:06:23;100572.97;;;0.82;74.75
52032;BME280;38044;45.148;39.604;2023-01-31T00:08:50;100570.72;;;0.86;74.65
52032;BME280;38044;45.148;39.604;2023-01-31T00:11:18;100677.69;;;1.50;74.96
52032;BME280;38044;45.148;39.604;2023-01-31T00:13:44;100707.34;;;1.83;74.77
52032;BME280;38044;45.148;39.604;2023-01-31T00:16:11;100654.44;;;1.52;74.24
52032;BME280;38044;45.148;39.604;2023-01-31T00:18:41;100670.69;;;1.68;74.30
52032;BME280;38044;45.148;39.604;2023-01-31T00:23:35;100680.16;;;1.75;73.69
52032;BME280;38044;45.148;39.604;2023-01-31T00:26:30;100566.38;;;1.03;73.81
52032;BME280;38044;45.148;39.604;2023-01-31T00:29:02;100665.16;;;1.57;73.67
52032;BME280;38044;45.148;39.604;2023-01-31T00:31:30;100647.53;;;1.63;74.04
52032;BME280;38044;45.148;39.604;2023-01-31T00:33:57;100646.81;;;1.68;73.84
52032;BME280;38044;45.148;39.604;2023-01-31T00:36:25;100656.03;;;1.77;73.56
52032;BME280;38044;45.148;39.604;2023-01-31T00:38:53;100680.16;;;1.87;73.87
52032;BME280;38044;45.148;39.604;2023-01-31T00:41:21;100642.56;;;1.67;73.30
52032;BME280;38044;45.148;39.604;2023-01-31T00:43:47;100667.34;;;1.84;73.25
52032;BME280;38044;45.148;39.604;2023-01-31T00:46:14;100630.47;;;1.71;73.60
52032;BME280;38044;45.148;39.604;2023-01-31T00:48:41;100647.41;;;1.82;73.37
52032;BME280;38044;45.148;39.604;2023-01-31T00:51:07;100631.63;;;1.75;73.42
52032;BME280;38044;45.148;39.604;2023-01-31T00:53:33;100630.94;;;1.68;73.44
52032;BME280;38044;45.148;39.604;2023-01-31T00:56:05;100523.44;;;1.13;73.90
52032;BME280;38044;45.148;39.604;2023-01-31T00:58:32;100618.25;;;1.70;73.46
52032;BME280;38044;45.148;39.604;2023-01-31T01:01:06;100595.44;;;1.69;73.65
52032;BME280;38044;45.148;39.604;2023-01-31T01:03:33;100611.44;;;1.86;73.31
52032;BME280;38044;45.148;39.604;2023-01-31T01:05:59;100640.81;;;2.08;73.33
52032;BME280;38044;45.148;39.604;2023-01-31T01:08:25;100602.81;;;1.90;73.24
52032;BME280;38044;45.148;39.604;2023-01-31T01:13:58;100503.44;;;1.29;73.16
52032;BME280;38044;45.148;39.604;2023-01-31T01:16:27;100541.97;;;1.48;73.26
52032;BME280;38044;45.148;39.604;2023-01-31T01:18:53;100629.56;;;2.00;73.23
52032;BME280;38044;45.148;39.604;2023-01-31T01:21:29;100602.22;;;1.88;73.69
52032;BME280;38044;45.148;39.604;2023-01-31T01:23:58;100615.94;;;1.85;73.64
52032;BME280;38044;45.148;39.604;2023-01-31T01:26:33;100641.28;;;2.05;74.44
52032;BME280;38044;45.148;39.604;2023-01-31T01:29:01;100524.50;;;1.24;74.48
52032;BME280;38044;45.148;39.604;2023-01-31T01:31:28;100625.06;;;1.77;74.94
52032;BME280;38044;45.148;39.604;2023-01-31T01:34:06;100571.72;;;1.50;75.18
52032;BME280;38044;45.148;39.604;2023-01-31T01:36:35;100587.72;;;1.55;75.29
52032;BME280;38044;45.148;39.604;2023-01-31T01:39:03;100552.13;;;1.51;74.91
52032;BME280;38044;45.148;39.604;2023-01-31T01:41:30;100649.25;;;2.16;74.70
52032;BME280;38044;45.148;39.604;2023-01-31T01:43:59;100521.13;;;1.40;74.00
52032;BME280;38044;45.148;39.604;2023-01-31T01:46:43;100643.09;;;2.39;74.04
52032;BME280;38044;45.148;39.604;2023-01-31T01:51:41;100644.25;;;2.20;73.85
52032;BME280;38044;45.148;39.604;2023-01-31T01:54:13;100600.84;;;1.86;74.26
52032;BME280;38044;45.148;39.604;2023-01-31T01:56:45;100656.84;;;2.24;74.40
52032;BME280;38044;45.148;39.604;2023-01-31T01:59:21;100642.31;;;2.27;74.24
52032;BME280;38044;45.148;39.604;2023-01-31T02:01:50;100614.78;;;2.05;74.04
52032;BME280;38044;45.148;39.604;2023-01-31T02:04:22;100596.38;;;1.86;74.70
52032;BME280;38044;45.148;39.604;2023-01-31T02:06:50;100528.38;;;1.56;75.09
52032;BME280;38044;45.148;39.604;2023-01-31T02:12:20;100639.13;;;2.54;74.54
52032;BME280;38044;45.148;39.604;2023-01-31T02:14:47;100571.13;;;1.84;74.49
52032;BME280;38044;45.148;39.604;2023-01-31T02:17:17;100642.53;;;2.25;75.59
52032;BME280;38044;45.148;39.604;2023-01-31T02:20:02;100641.94;;;2.35;75.85
52032;BME280;38044;45.148;39.604;2023-01-31T02:33:48;100640.97;;;1.77;77.41
52032;BME280;38044;45.148;39.604;2023-01-31T02:39:05;100632.56;;;1.80;77.53
52032;BME280;38044;45.148;39.604;2023-01-31T02:41:44;100561.44;;;1.30;77.90
52032;BME280;38044;45.148;39.604;2023-01-31T02:44:36;100501.66;;;0.87;78.28
52032;BME280;38044;45.148;39.604;2023-01-31T02:48:04;100623.09;;;1.73;77.59
52032;BME280;38044;45.148;39.604;2023-01-31T02:50:40;100623.31;;;1.60;77.57
52032;BME280;38044;45.148;39.604;2023-01-31T02:53:11;100628.28;;;1.56;77.56
52032;BME280;38044;45.148;39.604;2023-01-31T02:55:51;100504.53;;;0.86;77.45
52032;BME280;38044;45.148;39.604;2023-01-31T02:58:38;100593.50;;;1.52;77.04
52032;BME280;38044;45.148;39.604;2023-01-31T03:01:06;100496.03;;;0.96;76.89
52032;BME280;38044;45.148;39.604;2023-01-31T03:03:36;100532.91;;;1.32;76.58
52032;BME280;38044;45.148;39.604;2023-01-31T03:16:55;100592.91;;;1.74;77.36
52032;BME280;38044;45.148;39.604;2023-01-31T03:22:47;100614.09;;;1.97;76.60
52032;BME280;38044;45.148;39.604;2023-01-31T03:25:17;100539.69;;;1.64;76.48
52032;BME280;38044;45.148;39.604;2023-01-31T03:27:49;100602.09;;;2.07;76.19
52032;BME280;38044;45.148;39.604;2023-01-31T03:30:29;100584.38;;;1.95;75.78
52032;BME280;38044;45.148;39.604;2023-01-31T03:33:04;100628.63;;;2.07;76.11
52032;BME280;38044;45.148;39.604;2023-01-31T03:35:32;100552.25;;;1.45;76.04
52032;BME280;38044;45.148;39.604;2023-01-31T03:38:15;100632.91;;;1.84;76.70
52032;BME280;38044;45.148;39.604;2023-01-31T03:40:54;100543.50;;;1.32;77.04
52032;BME280;38044;45.148;39.604;2023-01-31T03:46:21;100621.50;;;1.72;77.04
52032;BME280;38044;45.148;39.604;2023-01-31T03:48:52;100624.69;;;1.74;77.20
52032;BME280;38044;45.148;39.604;2023-01-31T03:51:24;100490.59;;;0.79;77.41
52032;BME280;38044;45.148;39.604;2023-01-31T03:53:58;100618.94;;;1.53;77.80
52032;BME280;38044;45.148;39.604;2023-01-31T03:56:40;100633.47;;;1.63;77.92
52032;BME280;38044;45.148;39.604;2023-01-31T03:59:13;100501.91;;;0.86;77.60
52032;BME280;38044;45.148;39.604;2023-01-31T04:01:43;100616.19;;;1.72;77.58
52032;BME280;38044;45.148;39.604;2023-01-31T04:04:14;100587.38;;;1.64;77.12
52032;BME280;38044;45.148;39.604;2023-01-31T04:06:42;100622.50;;;1.83;76.37
52032;BME280;38044;45.148;39.604;2023-01-31T04:09:08;100502.47;;;1.00;76.46
52032;BME280;38044;45.148;39.604;2023-01-31T04:11:40;100549.94;;;1.37;76.77
52032;BME280;38044;45.148;39.604;2023-01-31T04:14:07;100507.22;;;1.21;76.14
52032;BME280;38044;45.148;39.604;2023-01-31T04:16:34;100625.53;;;1.86;75.88
52032;BME280;38044;45.148;39.604;2023-01-31T04:19:00;100501.69;;;1.11;75.93
52032;BME280;38044;45.148;39.604;2023-01-31T04:21:26;100628.63;;;1.83;75.69
52032;BME280;38044;45.148;39.604;2023-01-31T04:23:51;100498.56;;;1.02;75.60
52032;BME280;38044;45.148;39.604;2023-01-31T04:26:17;100613.88;;;1.64;76.05
52032;BME280;38044;45.148;39.604;2023-01-31T04:28:43;100607.41;;;1.71;75.94
52032;BME280;38044;45.148;39.604;2023-01-31T04:31:09;100635.66;;;1.89;75.57
52032;BME280;38044;45.148;39.604;2023-01-31T04:33:35;100621.97;;;1.80;76.02
52032;BME280;38044;45.148;39.604;2023-01-31T04:36:00;100614.69;;;1.64;76.21
52032;BME280;38044;45.148;39.604;2023-01-31T04:38:26;100589.13;;;1.46;76.78
52032;BME280;38044;45.148;39.604;2023-01-31T04:40:52;100606.63;;;1.59;76.80
52032;BME280;38044;45.148;39.604;2023-01-31T04:43:18;100625.75;;;1.73;77.00
52032;BME280;38044;45.148;39.604;2023-01-31T04:45:44;100612.03;;;1.52;76.96
52032;BME280;38044;45.148;39.604;2023-01-31T04:48:10;100495.88;;;0.79;77.50
52032;BME280;38044;45.148;39.604;2023-01-31T04:50:36;100617.34;;;1.52;77.64
52032;BME280;38044;45.148;39.604;2023-01-31T04:53:01;100626.31;;;1.51;77.57
52032;BME280;38044;45.148;39.604;2023-01-31T04:55:29;100615.38;;;1.48;77.34
52032;BME280;38044;45.148;39.604;2023-01-31T04:57:55;100513.97;;;0.94;77.24
52032;BME280;38044;45.148;39.604;2023-01-31T05:00:20;100628.97;;;1.63;77.12
52032;BME280;38044;45.148;39.604;2023-01-31T05:02:46;100634.97;;;1.70;77.07
52032;BME280;38044;45.148;39.604;2023-01-31T05:05:12;100612.25;;;1.63;76.80
52032;BME280;38044;45.148;39.604;2023-01-31T05:07:38;100632.66;;;1.86;76.84
52032;BME280;38044;45.148;39.604;2023-01-31T05:10:05;100634.84;;;2.00;76.16
52032;BME280;38044;45.148;39.604;2023-01-31T05:12:31;100627.22;;;2.16;75.80
52032;BME280;38044;45.148;39.604;2023-01-31T05:14:57;100581.44;;;2.09;75.09
52032;BME280;38044;45.148;39.604;2023-01-31T05:17:23;100599.59;;;2.40;74.48
52032;BME280;38044;45.148;39.604;2023-01-31T05:19:55;100549.13;;;2.23;74.31
52032;BME280;38044;45.148;39.604;2023-01-31T05:22:21;100640.09;;;3.05;73.67
52032;BME280;38044;45.148;39.604;2023-01-31T05:24:47;100633.34;;;3.14;72.71
52032;BME280;38044;45.148;39.604;2023-01-31T05:27:14;100606.25;;;3.00;72.27
52032;BME280;38044;45.148;39.604;2023-01-31T05:29:41;100496.31;;;2.22;71.84
52032;BME280;38044;45.148;39.604;2023-01-31T05:32:07;100603.91;;;2.87;72.08
52032;BME280;38044;45.148;39.604;2023-01-31T05:34:33;100532.13;;;2.36;72.13
52032;BME280;38044;45.148;39.604;2023-01-31T05:37:00;100628.09;;;3.02;72.56
52032;BME280;38044;45.148;39.604;2023-01-31T05:39:26;100630.41;;;2.99;72.53
52032;BME280;38044;45.148;39.604;2023-01-31T05:41:52;100601.59;;;2.90;72.99
52032;BME280;38044;45.148;39.604;2023-01-31T05:44:18;100536.84;;;2.63;72.85
52032;BME280;38044;45.148;39.604;2023-01-31T05:46:44;100625.31;;;3.43;72.38
52032;BME280;38044;45.148;39.604;2023-01-31T05:49:11;100501.16;;;2.87;71.37
52032;BME280;38044;45.148;39.604;2023-01-31T05:51:37;100555.72;;;3.29;71.23
52032;BME280;38044;45.148;39.604;2023-01-31T05:54:03;100605.00;;;3.70;71.05
52032;BME280;38044;45.148;39.604;2023-01-31T05:56:29;100525.78;;;3.33;70.81
52032;BME280;38044;45.148;39.604;2023-01-31T05:58:55;100621.06;;;3.97;70.58
52032;BME280;38044;45.148;39.604;2023-01-31T06:01:23;100593.81;;;4.07;69.96
52032;BME280;38044;45.148;39.604;2023-01-31T06:03:50;100546.66;;;4.51;68.97
52032;BME280;38044;45.148;39.604;2023-01-31T06:06:16;100588.44;;;5.70;67.18
52032;BME280;38044;45.148;39.604;2023-01-31T06:08:42;100585.38;;;6.56;65.35
52032;BME280;38044;45.148;39.604;2023-01-31T06:11:10;100578.16;;;6.72;63.77
52032;BME280;38044;45.148;39.604;2023-01-31T06:13:37;100626.28;;;6.77;63.94
52032;BME280;38044;45.148;39.604;2023-01-31T06:16:04;100565.88;;;6.71;63.82
52032;BME280;38044;45.148;39.604;2023-01-31T06:18:30;100629.25;;;7.93;62.28
52032;BME280;38044;45.148;39.604;2023-01-31T06:20:56;100621.31;;;8.48;60.26
52032;BME280;38044;45.148;39.604;2023-01-31T06:23:22;100631.44;;;9.06;59.15
52032;BME280;38044;45.148;39.604;2023-01-31T06:25:49;100599.28;;;8.61;58.56
52032;BME280;38044;45.148;39.604;2023-01-31T06:28:16;100611.47;;;8.33;58.95
52032;BME280;38044;45.148;39.604;2023-01-31T06:30:42;100563.69;;;7.75;59.69
52032;BME280;38044;45.148;39.604;2023-01-31T06:33:08;100604.38;;;7.77;60.18
52032;BME280;38044;45.148;39.604;2023-01-31T06:35:34;100520.50;;;6.96;60.94
52032;BME280;38044;45.148;39.604;2023-01-31T06:38:00;100523.66;;;6.78;61.21
52032;BME280;38044;45.148;39.604;2023-01-31T06:40:26;100546.69;;;6.84;61.91
52032;BME280;38044;45.148;39.604;2023-01-31T06:42:52;100591.59;;;7.08;62.13
52032;BME280;38044;45.148;39.604;2023-01-31T06:45:18;100581.69;;;6.88;62.60
52032;BME280;38044;45.148;39.604;2023-01-31T06:47:44;100531.66;;;6.47;63.07
52032;BME280;38044;45.148;39.604;2023-01-31T06:50:11;100606.22;;;6.69;63.24
52032;BME280;38044;45.148;39.604;2023-01-31T06:52:38;100598.97;;;6.54;63.51
52032;BME280;38044;45.148;39.604;2023-01-31T06:55:04;100572.19;;;6.34;64.00
52032;BME280;38044;45.148;39.604;2023-01-31T06:57:30;100557.75;;;6.25;63.60
52032;BME280;38044;45.148;39.604;2023-01-31T06:59:56;100485.72;;;5.72;63.79
52032;BME280;38044;45.148;39.604;2023-01-31T07:02:22;100604.81;;;6.46;64.04
52032;BME280;38044;45.148;39.604;2023-01-31T07:04:48;100559.66;;;6.35;63.91
52032;BME280;38044;45.148;39.604;2023-01-31T07:07:14;100591.25;;;6.68;63.46
52032;BME280;38044;45.148;39.604;2023-01-31T07:09:39;100588.38;;;6.95;63.21
52032;BME280;38044;45.148;39.604;2023-01-31T07:12:05;100585.69;;;7.21;62.34
52032;BME280;38044;45.148;39.604;2023-01-31T07:14:31;100486.81;;;6.75;61.77
52032;BME280;38044;45.148;39.604;2023-01-31T07:16:57;100566.97;;;7.47;62.02
52032;BME280;38044;45.148;39.604;2023-01-31T07:19:23;100591.47;;;8.10;61.41
52032;BME280;38044;45.148;39.604;2023-01-31T07:21:48;100577.06;;;8.55;60.01
52032;BME280;38044;45.148;39.604;2023-01-31T07:24:15;100586.81;;;8.86;59.22
52032;BME280;38044;45.148;39.604;2023-01-31T07:26:41;100578.88;;;8.70;58.93
52032;BME280;38044;45.148;39.604;2023-01-31T07:29:07;100561.63;;;8.42;59.55
52032;BME280;38044;45.148;39.604;2023-01-31T07:31:33;100571.28;;;8.28;59.63
52032;BME280;38044;45.148;39.604;2023-01-31T07:33:59;100576.91;;;8.31;59.85
52032;BME280;38044;45.148;39.604;2023-01-31T07:36:25;100554.44;;;8.22;59.65
52032;BME280;38044;45.148;39.604;2023-01-31T07:38:57;100568.81;;;8.47;59.94
52032;BME280;38044;45.148;39.604;2023-01-31T07:41:24;100578.47;;;8.43;59.64
52032;BME280;38044;45.148;39.604;2023-01-31T07:43:51;100546.16;;;8.19;60.19
52032;BME280;38044;45.148;39.604;2023-01-31T07:46:17;100578.09;;;8.65;60.15
52032;BME280;38044;45.148;39.604;2023-01-31T07:48:43;100557.84;;;8.88;59.62
52032;BME280;38044;45.148;39.604;2023-01-31T07:51:09;100560.81;;;9.20;58.65
52032;BME280;38044;45.148;39.604;2023-01-31T07:53:37;100587.25;;;9.61;58.40
52032;BME280;38044;45.148;39.604;2023-01-31T07:56:24;100581.56;;;9.92;57.73
52032;BME280;38044;45.148;39.604;2023-01-31T07:58:49;100585.56;;;10.19;57.90
52032;BME280;38044;45.148;39.604;2023-01-31T08:01:20;100575.84;;;10.23;56.51
52032;BME280;38044;45.148;39.604;2023-01-31T08:04:06;100529.56;;;10.07;56.28
52032;BME280;38044;45.148;39.604;2023-01-31T08:06:33;100567.19;;;10.31;55.96
52032;BME280;38044;45.148;39.604;2023-01-31T08:08:59;100567.41;;;10.10;56.27
52032;BME280;38044;45.148;39.604;2023-01-31T08:11:25;100576.84;;;10.08;56.52
52032;BME280;38044;45.148;39.604;2023-01-31T08:13:51;100575.53;;;10.24;56.55
52032;BME280;38044;45.148;39.604;2023-01-31T08:16:18;100560.53;;;10.23;56.08
52032;BME280;38044;45.148;39.604;2023-01-31T08:18:46;100499.53;;;9.81;56.27
52032;BME280;38044;45.148;39.604;2023-01-31T08:21:12;100546.56;;;10.21;56.53
52032;BME280;38044;45.148;39.604;2023-01-31T08:23:38;100567.34;;;10.40;56.05
52032;BME280;38044;45.148;39.604;2023-01-31T08:26:19;100566.97;;;10.46;56.53
52032;BME280;38044;45.148;39.604;2023-01-31T08:28:46;100542.72;;;10.08;56.66
52032;BME280;38044;45.148;39.604;2023-01-31T08:31:15;100547.47;;;10.17;56.49
52032;BME280;38044;45.148;39.604;2023-01-31T08:33:42;100522.97;;;9.99;57.12
52032;BME280;38044;45.148;39.604;2023-01-31T08:36:17;100516.13;;;9.88;57.18
52032;BME280;38044;45.148;39.604;2023-01-31T08:38:43;100549.28;;;9.49;57.96
52032;BME280;38044;45.148;39.604;2023-01-31T08:41:10;100531.25;;;9.25;58.69
52032;BME280;38044;45.148;39.604;2023-01-31T08:43:36;100550.78;;;9.31;59.31
52032;BME280;38044;45.148;39.604;2023-01-31T08:46:03;100538.19;;;9.32;60.35
52032;BME280;38044;45.148;39.604;2023-01-31T08:48:32;100563.00;;;9.47;60.33
52032;BME280;38044;45.148;39.604;2023-01-31T08:51:06;100568.09;;;9.44;60.21
52032;BME280;38044;45.148;39.604;2023-01-31T08:53:33;100538.91;;;9.08;60.51
52032;BME280;38044;45.148;39.604;2023-01-31T08:56:01;100518.63;;;8.97;60.35
52032;BME280;38044;45.148;39.604;2023-01-31T08:58:29;100495.22;;;8.78;60.18
52032;BME280;38044;45.148;39.604;2023-01-31T09:01:00;100469.00;;;8.70;60.49
52032;BME280;38044;45.148;39.604;2023-01-31T09:03:27;100525.88;;;8.96;60.20
52032;BME280;38044;45.148;39.604;2023-01-31T09:05:52;100526.94;;;8.95;60.64
52032;BME280;38044;45.148;39.604;2023-01-31T09:08:18;100477.06;;;8.65;60.48
52032;BME280;38044;45.148;39.604;2023-01-31T09:10:54;100523.34;;;9.10;60.83
52032;BME280;38044;45.148;39.604;2023-01-31T09:13:20;100516.56;;;8.89;60.75
52032;BME280;38044;45.148;39.604;2023-01-31T09:15:55;100525.13;;;8.91;60.45
52032;BME280;38044;45.148;39.604;2023-01-31T09:18:21;100444.31;;;8.73;60.56
52032;BME280;38044;45.148;39.604;2023-01-31T09:20:47;100509.50;;;9.56;59.42
52032;BME280;38044;45.148;39.604;2023-01-31T09:23:13;100434.47;;;9.46;58.63
52032;BME280;38044;45.148;39.604;2023-01-31T09:25:39;100473.00;;;9.98;58.35
52032;BME280;38044;45.148;39.604;2023-01-31T09:28:05;100405.22;;;9.68;57.95
52032;BME280;38044;45.148;39.604;2023-01-31T09:30:31;100448.34;;;9.96;57.87
52032;BME280;38044;45.148;39.604;2023-01-31T09:32:58;100503.06;;;10.43;57.52
52032;BME280;38044;45.148;39.604;2023-01-31T09:35:25;100414.97;;;10.02;57.17
52032;BME280;38044;45.148;39.604;2023-01-31T09:37:52;100498.53;;;10.57;56.75
52032;BME280;38044;45.148;39.604;2023-01-31T09:40:21;100470.09;;;10.37;56.95
52032;BME280;38044;45.148;39.604;2023-01-31T09:42:51;100463.03;;;10.23;56.77
52032;BME280;38044;45.148;39.604;2023-01-31T09:45:39;100494.28;;;10.37;57.04
52032;BME280;38044;45.148;39.604;2023-01-31T09:48:15;100478.22;;;10.32;57.22
52032;BME280;38044;45.148;39.604;2023-01-31T09:50:48;100504.78;;;10.53;56.51
52032;BME280;38044;45.148;39.604;2023-01-31T09:53:17;100500.06;;;10.64;57.16
52032;BME280;38044;45.148;39.604;2023-01-31T10:04:38;100476.44;;;12.09;54.60
52032;BME280;38044;45.148;39.604;2023-01-31T10:07:29;100373.22;;;11.86;54.04
52032;BME280;38044;45.148;39.604;2023-01-31T10:12:35;100372.31;;;12.13;53.42
52032;BME280;38044;45.148;39.604;2023-01-31T10:17:49;100441.34;;;12.90;52.56
52032;BME280;38044;45.148;39.604;2023-01-31T10:20:30;100355.19;;;12.54;51.85
52032;BME280;38044;45.148;39.604;2023-01-31T10:23:05;100422.16;;;12.92;52.63
52032;BME280;38044;45.148;39.604;2023-01-31T10:25:59;100440.25;;;13.22;52.12
52032;BME280;38044;45.148;39.604;2023-01-31T10:29:07;100367.97;;;12.71;51.77
52032;BME280;38044;45.148;39.604;2023-01-31T10:34:13;100430.59;;;12.99;52.22
52032;BME280;38044;45.148;39.604;2023-01-31T10:36:57;100347.75;;;12.91;51.80
52032;BME280;38044;45.148;39.604;2023-01-31T10:39:31;100428.63;;;13.22;51.11
52032;BME280;38044;45.148;39.604;2023-01-31T10:47:17;100394.28;;;12.20;52.96
52032;BME280;38044;45.148;39.604;2023-01-31T10:49:48;100371.41;;;11.81;52.72
52032;BME280;38044;45.148;39.604;2023-01-31T10:52:31;100369.69;;;11.49;53.38
52032;BME280;38044;45.148;39.604;2023-01-31T10:57:50;100347.66;;;10.31;55.17
52032;BME280;38044;45.148;39.604;2023-01-31T11:00:23;100354.41;;;10.10;55.72
52032;BME280;38044;45.148;39.604;2023-01-31T11:02:51;100309.88;;;9.52;56.26
52032;BME280;38044;45.148;39.604;2023-01-31T11:05:20;100280.63;;;9.13;57.01
52032;BME280;38044;45.148;39.604;2023-01-31T11:07:48;100317.03;;;9.19;57.64
52032;BME280;38044;45.148;39.604;2023-01-31T11:10:29;100371.38;;;9.48;59.12
52032;BME280;38044;45.148;39.604;2023-01-31T11:13:03;100364.69;;;9.27;59.14
52032;BME280;38044;45.148;39.604;2023-01-31T11:15:38;100343.78;;;9.00;59.13
52032;BME280;38044;45.148;39.604;2023-01-31T11:18:16;100327.97;;;8.98;59.53
52032;BME280;38044;45.148;39.604;2023-01-31T11:20:50;100319.31;;;9.07;58.38
52032;BME280;38044;45.148;39.604;2023-01-31T11:23:27;100256.53;;;8.89;56.93
52032;BME280;38044;45.148;39.604;2023-01-31T11:25:55;100360.53;;;9.59;56.05
52032;BME280;38044;45.148;39.604;2023-01-31T11:28:22;100366.34;;;9.85;55.34
52032;BME280;38044;45.148;39.604;2023-01-31T11:30:51;100366.25;;;10.09;55.08
52032;BME280;38044;45.148;39.604;2023-01-31T11:33:41;100364.50;;;10.37;54.98
52032;BME280;38044;45.148;39.604;2023-01-31T11:36:14;100375.38;;;10.46;54.63
52032;BME280;38044;45.148;39.604;2023-01-31T11:38:40;100363.63;;;10.55;53.60
52032;BME280;38044;45.148;39.604;2023-01-31T11:41:42;100312.69;;;10.50;53.73
52032;BME280;38044;45.148;39.604;2023-01-31T11:44:15;100358.97;;;10.61;53.28
52032;BME280;38044;45.148;39.604;2023-01-31T11:47:03;100385.38;;;10.73;53.29
52032;BME280;38044;45.148;39.604;2023-01-31T11:49:42;100388.41;;;10.85;53.43
52032;BME280;38044;45.148;39.604;2023-01-31T11:52:40;100379.25;;;10.86;53.51
52032;BME280;38044;45.148;39.604;2023-01-31T11:55:07;100359.63;;;10.39;53.10
52032;BME280;38044;45.148;39.604;2023-01-31T11:57:37;100381.25;;;10.48;53.59
52032;BME280;38044;45.148;39.604;2023-01-31T12:00:17;100384.09;;;10.37;53.69
52032;BME280;38044;45.148;39.604;2023-01-31T12:02:58;100356.75;;;10.17;53.46
52032;BME280;38044;45.148;39.604;2023-01-31T12:05:36;100330.00;;;9.74;53.63
52032;BME280;38044;45.148;39.604;2023-01-31T12:08:03;100389.28;;;9.96;54.00
52032;BME280;38044;45.148;39.604;2023-01-31T12:10:41;100290.06;;;9.29;54.51
52032;BME280;38044;45.148;39.604;2023-01-31T12:13:16;100372.88;;;9.79;54.33
52032;BME280;38044;45.148;39.604;2023-01-31T12:15:51;100391.72;;;9.74;54.63
52032;BME280;38044;45.148;39.604;2023-01-31T12:21:51;100398.16;;;9.73;55.47
52032;BME280;38044;45.148;39.604;2023-01-31T12:26:58;100391.81;;;9.87;55.73
52032;BME280;38044;45.148;39.604;2023-01-31T12:30:02;100341.31;;;9.70;55.02
52032;BME280;38044;45.148;39.604;2023-01-31T12:32:52;100335.38;;;9.74;55.12
52032;BME280;38044;45.148;39.604;2023-01-31T12:35:36;100412.69;;;10.09;55.11
52032;BME280;38044;45.148;39.604;2023-01-31T12:41:18;100407.84;;;10.11;54.76
52032;BME280;38044;45.148;39.604;2023-01-31T12:44:25;100411.03;;;10.13;54.05
52032;BME280;38044;45.148;39.604;2023-01-31T12:55:20;100411.59;;;9.73;55.34
52032;BME280;38044;45.148;39.604;2023-01-31T13:00:44;100419.06;;;9.57;55.29
52032;BME280;38044;45.148;39.604;2023-01-31T13:03:31;100401.91;;;9.53;55.07
52032;BME280;38044;45.148;39.604;2023-01-31T13:06:11;100422.16;;;9.45;55.36
52032;BME280;38044;45.148;39.604;2023-01-31T13:08:45;100387.00;;;9.22;55.65
52032;BME280;38044;45.148;39.604;2023-01-31T13:11:21;100402.78;;;9.24;56.51
52032;BME280;38044;45.148;39.604;2023-01-31T13:13:59;100292.84;;;8.52;56.74
52032;BME280;38044;45.148;39.604;2023-01-31T13:16:30;100413.03;;;9.22;56.91
52032;BME280;38044;45.148;39.604;2023-01-31T13:19:04;100417.34;;;9.18;57.14
52032;BME280;38044;45.148;39.604;2023-01-31T13:21:34;100367.75;;;8.91;57.27
52032;BME280;38044;45.148;39.604;2023-01-31T13:24:10;100387.34;;;8.87;57.44
52032;BME280;38044;45.148;39.604;2023-01-31T13:26:42;100419.47;;;8.92;57.70
52032;BME280;38044;45.148;39.604;2023-01-31T13:29:24;100302.22;;;8.20;57.72
52032;BME280;38044;45.148;39.604;2023-01-31T13:32:17;100405.66;;;8.79;57.53
52032;BME280;38044;45.148;39.604;2023-01-31T13:35:20;100405.88;;;8.83;58.19
52032;BME280;38044;45.148;39.604;2023-01-31T13:37:49;100352.16;;;8.35;58.36
52032;BME280;38044;45.148;39.604;2023-01-31T13:40:31;100385.22;;;8.60;59.32
52032;BME280;38044;45.148;39.604;2023-01-31T13:43:07;100355.13;;;8.33;59.42
52032;BME280;38044;45.148;39.604;2023-01-31T13:45:42;100433.09;;;8.66;59.82
52032;BME280;38044;45.148;39.604;2023-01-31T13:50:57;100434.94;;;8.71;59.63
52032;BME280;38044;45.148;39.604;2023-01-31T13:53:31;100428.88;;;8.60;60.67
52032;BME280;38044;45.148;39.604;2023-01-31T13:56:00;100428.41;;;8.53;60.60
52032;BME280;38044;45.148;39.604;2023-01-31T13:58:33;100378.31;;;8.14;60.83
52032;BME280;38044;45.148;39.604;2023-01-31T14:01:11;100430.66;;;8.35;61.46
52032;BME280;38044;45.148;39.604;2023-01-31T14:09:31;100406.28;;;7.93;62.38
52032;BME280;38044;45.148;39.604;2023-01-31T14:14:48;100422.63;;;7.86;62.43
52032;BME280;38044;45.148;39.604;2023-01-31T14:22:24;100435.19;;;7.96;63.16
52032;BME280;38044;45.148;39.604;2023-01-31T14:27:22;100317.03;;;7.18;62.75
52032;BME280;38044;45.148;39.604;2023-01-31T14:41:23;100421.81;;;7.90;62.79
52032;BME280;38044;45.148;39.604;2023-01-31T14:44:24;100376.47;;;7.65;63.57
52032;BME280;38044;45.148;39.604;2023-01-31T14:49:42;100420.88;;;7.61;64.30
52032;BME280;38044;45.148;39.604;2023-01-31T14:58:05;100391.53;;;7.40;64.99
52032;BME280;38044;45.148;39.604;2023-01-31T15:00:47;100435.56;;;7.74;64.92
52032;BME280;38044;45.148;39.604;2023-01-31T15:03:24;100439.09;;;7.59;65.24
52032;BME280;38044;45.148;39.604;2023-01-31T15:06:12;100443.91;;;7.57;65.62
52032;BME280;38044;45.148;39.604;2023-01-31T15:08:47;100399.13;;;7.08;66.52
52032;BME280;38044;45.148;39.604;2023-01-31T15:11:34;100433.22;;;7.47;66.35
52032;BME280;38044;45.148;39.604;2023-01-31T15:14:24;100436.97;;;7.56;67.72
52032;BME280;38044;45.148;39.604;2023-01-31T15:16:59;100457.06;;;7.43;69.07